Time;durP1;ratioP1;P1;durP2;ratioP2;P2;SDS_P1;SDS_P2;PMS_P1;PMS_P2;Temp;Humidity;BMP_temperature;BMP_pressure;BME280_temperature;BME280_humidity;BME280_pressure;Samples;Min_cycle;Max_cycle;Signal;HPM_P1;HPM_P2
2022/12/21 00:01:34;;;;;;;16.85;11.18;;;10.50;99.90;;;;;;4971214;28;20043;-73
2022/12/21 00:04:04;;;;;;;15.02;10.82;;;10.50;99.90;;;;;;4964184;28;20513;-73
2022/12/21 00:06:33;;;;;;;14.57;10.02;;;10.50;99.90;;;;;;4964981;28;20521;-73
2022/12/21 00:09:04;;;;;;;15.30;9.75;;;10.40;99.90;;;;;;4955812;28;20076;-73
2022/12/21 00:11:32;;;;;;;12.55;8.88;;;10.40;99.90;;;;;;4971620;28;20039;-74
2022/12/21 00:14:01;;;;;;;19.55;11.55;;;10.40;99.90;;;;;;4959894;28;20065;-72
2022/12/21 00:16:32;;;;;;;15.32;10.00;;;10.40;99.90;;;;;;4960479;28;20051;-74
2022/12/21 00:19:01;;;;;;;17.98;10.20;;;10.50;99.90;;;;;;4963352;28;20588;-72
2022/12/21 00:21:30;;;;;;;12.80;9.43;;;10.40;99.90;;;;;;4962721;28;20047;-73
2022/12/21 00:23:58;;;;;;;15.48;10.23;;;10.40;99.90;;;;;;4958108;28;20047;-73
2022/12/21 00:26:32;;;;;;;13.05;10.48;;;10.40;99.90;;;;;;4963803;28;20386;-73
2022/12/21 00:29:01;;;;;;;12.38;9.75;;;10.40;99.90;;;;;;4955044;28;20034;-72
2022/12/21 00:31:31;;;;;;;16.13;10.30;;;10.40;99.90;;;;;;4967814;28;20559;-73
2022/12/21 00:33:59;;;;;;;13.98;10.65;;;10.50;99.90;;;;;;4978245;28;20063;-75
2022/12/21 00:36:31;;;;;;;12.80;9.15;;;10.50;99.90;;;;;;4959051;28;20052;-75
2022/12/21 00:39:00;;;;;;;14.10;8.95;;;10.50;99.90;;;;;;4963124;28;20047;-73
2022/12/21 00:41:28;;;;;;;13.25;9.63;;;10.50;99.90;;;;;;4969715;28;20117;-72
2022/12/21 00:43:56;;;;;;;11.88;9.65;;;10.50;99.90;;;;;;4978126;28;20039;-73
2022/12/21 00:46:26;;;;;;;16.38;10.23;;;10.50;99.90;;;;;;4962480;28;20061;-73
2022/12/21 00:49:03;;;;;;;16.58;9.52;;;10.50;99.90;;;;;;4952996;28;20497;-73
2022/12/21 00:51:33;;;;;;;11.75;7.95;;;10.50;99.90;;;;;;4962704;28;20134;-73
2022/12/21 00:54:00;;;;;;;14.50;9.85;;;10.50;99.90;;;;;;4972105;28;20097;-73
2022/12/21 00:56:29;;;;;;;15.98;9.63;;;10.50;99.90;;;;;;4956117;28;20066;-73
2022/12/21 00:58:57;;;;;;;12.90;9.25;;;10.50;99.90;;;;;;4961977;28;20047;-74
2022/12/21 01:01:27;;;;;;;15.23;8.95;;;10.50;99.90;;;;;;4958846;28;20469;-74
2022/12/21 01:03:56;;;;;;;13.63;8.80;;;10.50;99.90;;;;;;4957658;28;20045;-73
2022/12/21 01:06:34;;;;;;;16.05;9.80;;;10.50;99.90;;;;;;4963398;28;20109;-73
2022/12/21 01:09:07;;;;;;;16.85;10.13;;;10.50;99.90;;;;;;4948789;28;20035;-73
2022/12/21 01:11:36;;;;;;;15.48;9.73;;;10.50;99.90;;;;;;4961716;28;20043;-76
2022/12/21 01:14:04;;;;;;;13.10;9.57;;;10.40;99.90;;;;;;4962221;28;20050;-74
2022/12/21 01:16:32;;;;;;;11.80;8.52;;;10.40;99.90;;;;;;4979364;28;20050;-76
2022/12/21 01:19:02;;;;;;;16.67;9.90;;;10.40;99.90;;;;;;4963285;28;20049;-74
2022/12/21 01:21:31;;;;;;;12.15;8.52;;;10.40;99.90;;;;;;4958997;28;20409;-77
2022/12/21 01:23:59;;;;;;;12.43;9.38;;;10.30;99.90;;;;;;4957018;28;20109;-73
2022/12/21 01:26:28;;;;;;;15.65;10.32;;;10.40;99.90;;;;;;4970579;28;20047;-74
2022/12/21 01:28:55;;;;;;;10.95;7.80;;;10.40;99.90;;;;;;4965964;28;20125;-72
2022/12/21 01:31:23;;;;;;;12.02;7.90;;;10.40;99.90;;;;;;4960938;28;20062;-75
2022/12/21 01:33:51;;;;;;;14.63;9.20;;;10.40;99.90;;;;;;4957816;28;20047;-73
2022/12/21 01:36:19;;;;;;;11.02;7.95;;;10.50;99.90;;;;;;4965326;28;20664;-73
2022/12/21 01:38:47;;;;;;;11.32;8.52;;;10.50;99.90;;;;;;4966105;28;20109;-73
2022/12/21 01:41:19;;;;;;;12.32;7.18;;;10.50;99.90;;;;;;4967397;28;20047;-73
2022/12/21 01:43:56;;;;;;;12.10;8.77;;;10.50;99.90;;;;;;4957300;28;20043;-73
2022/12/21 01:46:23;;;;;;;;;;;10.50;99.90;;;;;;4960960;28;20078;-73
2022/12/21 01:48:59;;;;;;;12.63;8.50;;;10.50;99.90;;;;;;4971015;28;20403;-73
2022/12/21 01:51:26;;;;;;;12.15;7.65;;;10.50;99.90;;;;;;4946046;28;20047;-73
2022/12/21 01:54:00;;;;;;;14.43;8.57;;;10.50;99.90;;;;;;4940685;28;20070;-73
2022/12/21 01:56:36;;;;;;;13.70;8.63;;;10.50;99.90;;;;;;4962540;28;20050;-73
2022/12/21 01:59:11;;;;;;;12.65;9.07;;;10.50;99.90;;;;;;4959736;28;20051;-75
2022/12/21 02:01:38;;;;;;;11.45;7.60;;;10.50;99.90;;;;;;4977090;28;20044;-73
2022/12/21 02:04:07;;;;;;;11.25;7.95;;;10.50;99.90;;;;;;4963053;28;20171;-74
2022/12/21 02:06:49;;;;;;;12.45;8.10;;;10.50;99.90;;;;;;4962001;28;20130;-73
2022/12/21 02:09:18;;;;;;;11.85;7.63;;;10.50;99.90;;;;;;4955339;28;20043;-72
2022/12/21 02:11:50;;;;;;;12.23;9.10;;;10.60;99.90;;;;;;4960946;28;20039;-73
2022/12/21 02:14:17;;;;;;;13.70;7.75;;;10.60;99.90;;;;;;4940725;28;20165;-73
2022/12/21 02:17:18;;;;;;;13.80;9.77;;;10.60;99.90;;;;;;4957738;28;20046;-73
2022/12/21 02:20:10;;;;;;;15.75;9.32;;;10.60;99.90;;;;;;4964479;28;20063;-73
2022/12/21 02:22:54;;;;;;;11.82;8.20;;;10.60;99.90;;;;;;4939589;28;20101;-72
2022/12/21 02:25:51;;;;;;;12.35;8.38;;;10.60;99.90;;;;;;4933960;29;20693;-73
2022/12/21 02:28:34;;;;;;;13.38;7.70;;;10.60;99.90;;;;;;4942535;28;20061;-73
2022/12/21 02:31:32;;;;;;;12.32;8.02;;;10.50;99.90;;;;;;4948202;28;20051;-75
2022/12/21 02:34:55;;;;;;;11.57;6.97;;;10.60;99.90;;;;;;4947884;28;20582;-72
2022/12/21 02:37:46;;;;;;;13.23;8.45;;;10.60;99.90;;;;;;4916665;29;20070;-76
2022/12/21 02:40:41;;;;;;;12.30;8.38;;;10.60;99.90;;;;;;4964700;28;20030;-73
2022/12/21 02:46:21;;;;;;;13.25;9.27;;;10.50;99.90;;;;;;4955225;28;20039;-73
2022/12/21 02:48:56;;;;;;;12.95;8.60;;;10.40;99.90;;;;;;4967777;28;20050;-72
2022/12/21 02:51:34;;;;;;;11.10;8.07;;;10.40;99.90;;;;;;4959903;28;20047;-73
2022/12/21 02:54:02;;;;;;;13.98;9.32;;;10.40;99.90;;;;;;4957532;28;20057;-76
2022/12/21 02:56:30;;;;;;;12.95;9.02;;;10.40;99.90;;;;;;4960304;28;20122;-74
2022/12/21 02:58:58;;;;;;;11.35;8.18;;;10.40;99.90;;;;;;4950030;28;20039;-75
2022/12/21 03:01:32;;;;;;;16.45;9.38;;;10.40;99.90;;;;;;4960558;28;20040;-74
2022/12/21 03:04:08;;;;;;;12.77;8.90;;;10.40;99.90;;;;;;4953433;28;20042;-73
2022/12/21 03:06:42;;;;;;;12.73;9.60;;;10.40;99.90;;;;;;4960248;28;20505;-74
2022/12/21 03:09:20;;;;;;;13.32;8.23;;;10.40;99.90;;;;;;4962064;28;20047;-74
2022/12/21 03:11:51;;;;;;;11.43;8.77;;;10.50;99.90;;;;;;4955274;28;20089;-73
2022/12/21 03:14:46;;;;;;;11.18;7.95;;;10.40;99.90;;;;;;4950485;29;20043;-73
2022/12/21 03:17:47;;;;;;;10.05;7.68;;;10.50;99.90;;;;;;4933211;29;20447;-73
2022/12/21 03:20:30;;;;;;;12.60;9.15;;;10.40;99.90;;;;;;4939941;29;20490;-74
2022/12/21 03:23:18;;;;;;;13.13;8.45;;;10.40;99.90;;;;;;4949105;28;20059;-74
2022/12/21 03:26:15;;;;;;;15.60;8.35;;;10.40;99.90;;;;;;4936657;29;20494;-73
2022/12/21 03:28:45;;;;;;;10.70;8.05;;;10.50;99.90;;;;;;4957331;28;20513;-74
2022/12/21 03:31:18;;;;;;;16.15;7.95;;;10.50;99.90;;;;;;4968761;28;20211;-73
2022/12/21 03:33:55;;;;;;;14.48;8.93;;;10.50;99.90;;;;;;4969133;28;20477;-74
2022/12/21 03:36:43;;;;;;;12.02;8.27;;;10.50;99.90;;;;;;4953980;28;20055;-73
2022/12/21 03:39:14;;;;;;;12.02;7.45;;;10.50;99.90;;;;;;4955181;28;20055;-73
2022/12/21 03:41:57;;;;;;;10.20;7.50;;;10.50;99.90;;;;;;4973479;28;20046;-74
2022/12/21 03:44:34;;;;;;;13.50;8.25;;;10.50;99.90;;;;;;4973434;28;20121;-74
2022/12/21 03:47:15;;;;;;;10.05;8.00;;;10.50;99.90;;;;;;4972331;28;20457;-74
2022/12/21 03:49:59;;;;;;;14.15;8.20;;;10.60;99.90;;;;;;4965823;28;20490;-73
2022/12/21 03:52:41;;;;;;;13.00;7.82;;;10.50;99.90;;;;;;4954389;28;20051;-74
2022/12/21 03:55:19;;;;;;;11.20;8.15;;;10.60;99.90;;;;;;4952478;29;20066;-74
2022/12/21 03:57:48;;;;;;;13.52;8.07;;;10.60;99.90;;;;;;4936769;29;20506;-75
2022/12/21 04:00:16;;;;;;;14.25;7.35;;;10.60;99.90;;;;;;4959896;28;20058;-73
2022/12/21 04:02:47;;;;;;;14.95;8.40;;;10.60;99.90;;;;;;4957089;28;20134;-73
2022/12/21 04:05:23;;;;;;;14.85;8.32;;;10.60;99.90;;;;;;4953876;28;20047;-74
2022/12/21 04:07:53;;;;;;;10.70;7.03;;;10.50;99.90;;;;;;4953543;28;20051;-73
2022/12/21 04:10:22;;;;;;;12.20;8.32;;;10.50;99.90;;;;;;4960754;28;20047;-74
2022/12/21 04:12:49;;;;;;;13.18;8.77;;;10.50;99.90;;;;;;4953444;28;20098;-74
2022/12/21 04:15:18;;;;;;;12.85;7.72;;;10.50;99.90;;;;;;4953509;28;20039;-73
2022/12/21 04:17:48;;;;;;;12.63;8.48;;;10.50;99.90;;;;;;4955665;28;20051;-73
2022/12/21 04:20:22;;;;;;;14.27;8.43;;;10.50;99.90;;;;;;4960383;28;20054;-74
2022/12/21 04:28:26;;;;;;;12.13;8.37;;;10.50;99.90;;;;;;4952203;29;20097;-74
2022/12/21 04:31:13;;;;;;;13.43;8.82;;;10.50;99.90;;;;;;4959435;28;20295;-73
2022/12/21 04:33:41;;;;;;;12.32;8.13;;;10.50;99.90;;;;;;4951573;29;20525;-74
2022/12/21 04:38:54;;;;;;;9.80;6.90;;;10.50;99.90;;;;;;4935970;29;20513;-73
2022/12/21 04:41:21;;;;;;;13.88;7.50;;;10.50;99.90;;;;;;4960203;28;20046;-73
2022/12/21 04:43:49;;;;;;;16.17;8.93;;;10.50;99.90;;;;;;4952720;28;20083;-73
2022/12/21 04:46:16;;;;;;;11.18;6.93;;;10.50;99.90;;;;;;4920596;29;20047;-73
2022/12/21 04:48:45;;;;;;;12.90;8.02;;;10.50;99.90;;;;;;4935926;29;20054;-74
2022/12/21 04:51:16;;;;;;;12.75;7.93;;;10.40;99.90;;;;;;4962347;28;20116;-74
2022/12/21 04:53:44;;;;;;;10.90;7.68;;;10.50;99.90;;;;;;4971736;28;20129;-74
2022/12/21 04:56:11;;;;;;;11.82;7.95;;;10.40;99.90;;;;;;4969901;28;20043;-74
2022/12/21 04:58:40;;;;;;;11.70;7.38;;;10.50;99.90;;;;;;4972276;28;20046;-73
2022/12/21 05:01:09;;;;;;;13.82;7.60;;;10.50;99.90;;;;;;4971019;28;20047;-73
2022/12/21 05:03:37;;;;;;;13.38;8.52;;;10.40;99.90;;;;;;4972072;28;20401;-74
2022/12/21 05:06:07;;;;;;;11.98;8.52;;;10.40;99.90;;;;;;4972472;28;20043;-73
2022/12/21 05:08:34;;;;;;;11.02;7.60;;;10.40;99.90;;;;;;4971938;28;20053;-73
2022/12/21 05:11:17;;;;;;;13.05;8.15;;;10.30;99.90;;;;;;4962788;28;20054;-75
2022/12/21 05:13:46;;;;;;;15.70;8.57;;;10.30;99.90;;;;;;4970445;28;20471;-73
2022/12/21 05:16:18;;;;;;;12.85;7.88;;;10.30;99.90;;;;;;4971382;28;20077;-73
2022/12/21 05:18:48;;;;;;;15.10;9.50;;;10.30;99.90;;;;;;4971416;28;20054;-74
2022/12/21 05:21:17;;;;;;;13.07;8.13;;;10.30;99.90;;;;;;4962108;28;20051;-73
2022/12/21 05:23:44;;;;;;;10.85;8.98;;;10.20;99.90;;;;;;4966976;28;20074;-76
2022/12/21 05:26:12;;;;;;;13.20;8.60;;;10.20;99.90;;;;;;4971431;28;20047;-74
2022/12/21 05:28:42;;;;;;;14.77;7.45;;;10.20;99.90;;;;;;4970272;28;20576;-73
2022/12/21 05:31:10;;;;;;;12.05;7.80;;;10.20;99.90;;;;;;4946786;28;20085;-73
2022/12/21 05:33:39;;;;;;;18.48;9.13;;;10.10;99.90;;;;;;4970986;28;20466;-74
2022/12/21 05:36:10;;;;;;;12.80;8.15;;;10.10;99.90;;;;;;4970236;28;20202;-74
2022/12/21 05:38:38;;;;;;;11.35;7.65;;;10.10;99.90;;;;;;4971583;28;20046;-75
2022/12/21 05:41:05;;;;;;;12.00;7.43;;;10.10;99.90;;;;;;4962729;28;20055;-75
2022/12/21 05:43:34;;;;;;;13.35;8.38;;;10.10;99.90;;;;;;4971109;28;20053;-77
2022/12/21 05:46:06;;;;;;;14.80;9.23;;;10.10;99.90;;;;;;4970940;28;20050;-73
2022/12/21 05:48:34;;;;;;;14.80;10.48;;;10.10;99.90;;;;;;4971796;28;20094;-73
2022/12/21 05:51:13;;;;;;;14.48;9.15;;;10.10;99.90;;;;;;4962457;28;20852;-74
2022/12/21 05:53:43;;;;;;;12.02;8.38;;;10.10;99.90;;;;;;4969307;28;20377;-74
2022/12/21 05:56:12;;;;;;;14.70;8.82;;;10.00;99.90;;;;;;4969565;28;20041;-75
2022/12/21 05:58:40;;;;;;;10.85;7.53;;;10.00;99.90;;;;;;4937347;28;20445;-75
2022/12/21 06:01:09;;;;;;;12.45;8.43;;;10.00;99.90;;;;;;4963035;28;20248;-73
2022/12/21 06:03:38;;;;;;;13.02;8.60;;;10.00;99.90;;;;;;4970883;28;20847;-74
2022/12/21 06:06:14;;;;;;;9.95;7.00;;;10.00;99.90;;;;;;4938065;28;20105;-74
2022/12/21 06:08:42;;;;;;;;;;;10.00;99.90;;;;;;4969620;28;20043;-74
2022/12/21 06:11:15;;;;;;;11.55;8.55;;;9.90;99.90;;;;;;4970698;28;19954;-73
2022/12/21 06:13:43;;;;;;;14.57;7.75;;;10.00;99.90;;;;;;4947225;29;20588;-74
2022/12/21 06:16:16;;;;;;;15.85;8.98;;;10.00;99.90;;;;;;4950103;29;20062;-74
2022/12/21 06:18:44;;;;;;;12.55;9.00;;;10.10;99.90;;;;;;4934221;29;20138;-73
2022/12/21 06:21:13;;;;;;;14.32;9.82;;;10.10;99.90;;;;;;4957197;28;20580;-73
2022/12/21 06:23:41;;;;;;;16.08;9.13;;;10.30;99.90;;;;;;4950747;28;20505;-73
2022/12/21 06:26:13;;;;;;;14.60;9.40;;;10.60;99.90;;;;;;4949597;28;20062;-73
2022/12/21 06:28:41;;;;;;;16.85;10.50;;;11.00;99.90;;;;;;4951227;28;20149;-73
2022/12/21 06:31:11;;;;;;;16.45;9.88;;;11.50;99.90;;;;;;4958835;28;20129;-73
2022/12/21 06:33:40;;;;;;;13.38;9.48;;;11.90;99.90;;;;;;4950564;28;20054;-73
2022/12/21 06:36:09;;;;;;;15.20;9.65;;;11.90;99.90;;;;;;4949593;29;20573;-75
2022/12/21 06:38:36;;;;;;;16.65;11.63;;;11.80;99.90;;;;;;4949635;28;20142;-76
2022/12/21 06:41:09;;;;;;;24.73;16.08;;;11.50;99.90;;;;;;4958531;28;20054;-73
2022/12/21 06:43:38;;;;;;;21.45;14.45;;;11.30;99.90;;;;;;4951036;28;20055;-74
2022/12/21 06:46:09;;;;;;;22.45;13.77;;;11.20;99.90;;;;;;4950328;29;20059;-73
2022/12/21 06:48:37;;;;;;;19.85;12.95;;;11.00;99.90;;;;;;4949770;29;20126;-73
2022/12/21 06:51:09;;;;;;;19.08;12.88;;;11.00;99.90;;;;;;4958438;28;20138;-74
2022/12/21 06:53:38;;;;;;;22.80;15.23;;;11.10;99.90;;;;;;4950948;28;20039;-73
2022/12/21 06:56:07;;;;;;;23.85;15.30;;;11.10;99.90;;;;;;4949426;28;20134;-73
2022/12/21 06:58:38;;;;;;;23.98;17.75;;;11.10;99.90;;;;;;4952977;28;20511;-73
2022/12/21 07:01:12;;;;;;;28.63;19.95;;;11.10;99.90;;;;;;4958016;28;20043;-73
2022/12/21 07:03:41;;;;;;;33.80;21.60;;;11.00;99.90;;;;;;4959843;28;20039;-73
2022/12/21 07:06:12;;;;;;;26.73;18.70;;;11.60;99.90;;;;;;4952606;28;20039;-74
2022/12/21 07:08:40;;;;;;;19.75;14.15;;;12.10;99.90;;;;;;4957505;28;20047;-73
2022/12/21 07:11:10;;;;;;;19.77;15.00;;;12.50;99.90;;;;;;4961664;28;20054;-76
2022/12/21 07:13:40;;;;;;;19.83;14.90;;;12.80;99.90;;;;;;4961463;28;20066;-73
2022/12/21 07:16:08;;;;;;;24.42;14.45;;;13.20;99.90;;;;;;4945858;28;20097;-76
2022/12/21 07:18:36;;;;;;;20.73;15.23;;;14.00;99.90;;;;;;4955167;28;20047;-74
2022/12/21 07:21:07;;;;;;;17.63;13.95;;;14.50;99.90;;;;;;4969107;28;20046;-73
2022/12/21 07:23:36;;;;;;;21.77;14.90;;;14.60;99.90;;;;;;4956269;28;20150;-73
2022/12/21 07:26:10;;;;;;;17.58;13.00;;;14.70;99.90;;;;;;4958763;28;20046;-73
2022/12/21 07:28:38;;;;;;;18.65;13.60;;;14.70;99.90;;;;;;4963653;28;20146;-74
2022/12/21 07:31:09;;;;;;;19.05;12.85;;;15.20;99.90;;;;;;4936379;28;20059;-73
2022/12/21 07:33:38;;;;;;;16.42;11.77;;;16.40;99.90;;;;;;4948848;28;20047;-76
2022/12/21 07:36:06;;;;;;;15.70;10.50;;;17.20;99.90;;;;;;4957647;28;20053;-73
2022/12/21 07:38:36;;;;;;;16.40;11.80;;;17.40;99.90;;;;;;4969794;28;20117;-76
2022/12/21 07:41:06;;;;;;;15.38;10.55;;;18.10;99.90;;;;;;4956538;28;20043;-74
2022/12/21 07:43:34;;;;;;;15.43;10.20;;;18.90;99.90;;;;;;4932424;29;20047;-75
2022/12/21 07:46:28;;;;;;;14.25;11.10;;;19.30;99.90;;;;;;4926553;29;20142;-75
2022/12/21 07:48:58;;;;;;;18.10;12.25;;;20.20;99.90;;;;;;4932534;29;20067;-74
2022/12/21 07:51:25;;;;;;;17.88;13.38;;;20.50;99.90;;;;;;4965114;28;20047;-75
2022/12/21 07:53:53;;;;;;;21.65;14.75;;;20.20;99.90;;;;;;4968096;28;20141;-74
2022/12/21 07:56:21;;;;;;;21.73;14.50;;;20.20;99.90;;;;;;4968060;28;20086;-73
2022/12/21 07:58:48;;;;;;;13.73;8.43;;;20.50;99.90;;;;;;4970907;28;20374;-74
2022/12/21 08:01:17;;;;;;;7.07;5.90;;;20.50;99.90;;;;;;4964662;28;20066;-75
2022/12/21 08:03:47;;;;;;;7.65;4.57;;;20.10;99.90;;;;;;4958738;28;20050;-74
2022/12/21 08:06:15;;;;;;;6.80;4.90;;;19.60;99.90;;;;;;4958372;28;20491;-73
2022/12/21 08:08:43;;;;;;;6.57;4.70;;;19.30;99.90;;;;;;4939723;28;20051;-74
2022/12/21 08:11:14;;;;;;;8.15;5.00;;;18.90;99.90;;;;;;4967412;28;20114;-74
2022/12/21 08:13:42;;;;;;;9.07;5.70;;;18.80;99.90;;;;;;4953547;28;20537;-73
2022/12/21 08:16:11;;;;;;;8.00;5.07;;;18.90;99.90;;;;;;4954046;28;20046;-75
2022/12/21 08:18:39;;;;;;;8.95;5.43;;;19.20;99.90;;;;;;4969448;28;20055;-75
2022/12/21 08:21:06;;;;;;;9.73;6.43;;;19.40;99.90;;;;;;4945125;29;20690;-74
2022/12/21 08:23:34;;;;;;;13.40;8.43;;;19.60;99.90;;;;;;4958075;28;20050;-75
2022/12/21 08:26:03;;;;;;;13.18;8.65;;;19.70;99.90;;;;;;4971252;28;20070;-75
2022/12/21 08:28:32;;;;;;;15.32;10.75;;;19.80;99.90;;;;;;4970313;28;20342;-73
2022/12/21 08:31:15;;;;;;;17.63;13.90;;;19.80;99.90;;;;;;4957759;28;20055;-74
2022/12/21 08:33:43;;;;;;;17.25;15.32;;;19.70;99.90;;;;;;4934940;29;20202;-75
2022/12/21 08:36:15;;;;;;;21.77;16.40;;;19.50;99.90;;;;;;4952163;28;20130;-74
2022/12/21 08:38:44;;;;;;;24.05;17.25;;;19.40;99.90;;;;;;4951300;29;20074;-73
2022/12/21 08:41:31;;;;;;;21.13;15.27;;;19.10;99.90;;;;;;4960426;28;20087;-74
2022/12/21 08:43:59;;;;;;;20.80;17.20;;;18.90;99.90;;;;;;4955490;28;20113;-74
2022/12/21 08:46:26;;;;;;;19.77;15.95;;;18.70;99.90;;;;;;4968778;28;20047;-74
2022/12/21 08:48:54;;;;;;;26.42;18.42;;;18.60;99.90;;;;;;4969974;28;20038;-75
2022/12/21 08:51:21;;;;;;;24.13;16.23;;;18.50;99.90;;;;;;4965283;28;20040;-75
2022/12/21 08:53:49;;;;;;;20.02;15.13;;;18.40;99.90;;;;;;4970229;28;20109;-75
2022/12/21 08:56:18;;;;;;;18.25;10.48;;;18.40;99.90;;;;;;4970814;28;20090;-74
2022/12/21 08:58:46;;;;;;;12.13;9.35;;;18.30;99.90;;;;;;4954803;28;20061;-74
2022/12/21 09:01:20;;;;;;;15.30;10.65;;;18.30;99.90;;;;;;4964821;28;20046;-74
2022/12/21 09:03:48;;;;;;;16.00;11.32;;;18.40;99.90;;;;;;4951684;28;20509;-74
2022/12/21 09:06:15;;;;;;;15.43;9.45;;;18.40;99.90;;;;;;4970883;28;20039;-74
2022/12/21 09:08:43;;;;;;;9.30;6.72;;;18.50;99.90;;;;;;4970159;28;20078;-74
2022/12/21 09:11:12;;;;;;;8.00;5.57;;;18.60;99.90;;;;;;4970439;28;20046;-74
2022/12/21 09:13:40;;;;;;;12.15;8.95;;;18.60;99.90;;;;;;4969804;28;20062;-74
2022/12/21 09:16:14;;;;;;;11.48;8.43;;;18.70;99.90;;;;;;4971289;28;20145;-73
2022/12/21 09:18:43;;;;;;;10.70;6.97;;;18.70;99.90;;;;;;4971153;28;20138;-76
2022/12/21 09:21:12;;;;;;;12.40;8.35;;;18.70;99.90;;;;;;4961291;28;20050;-74
2022/12/21 09:23:39;;;;;;;10.40;6.85;;;18.70;99.90;;;;;;4966885;28;20386;-75
2022/12/21 09:26:08;;;;;;;9.48;6.95;;;18.80;99.90;;;;;;4970498;28;20045;-73
2022/12/21 09:28:36;;;;;;;8.90;6.63;;;18.80;99.90;;;;;;4970247;28;20760;-73
2022/12/21 09:31:12;;;;;;;8.77;5.93;;;18.90;99.90;;;;;;4964058;28;20349;-73
2022/12/21 09:33:41;;;;;;;7.53;5.78;;;19.00;99.90;;;;;;4971442;28;20212;-74
2022/12/21 09:36:10;;;;;;;8.55;5.53;;;19.20;99.90;;;;;;4970965;28;20039;-74
2022/12/21 09:38:38;;;;;;;6.90;5.05;;;19.40;99.90;;;;;;4971308;28;20055;-75
2022/12/21 09:41:05;;;;;;;6.25;4.18;;;19.60;99.90;;;;;;4945041;28;20090;-74
2022/12/21 09:43:38;;;;;;;6.60;3.83;;;19.80;99.90;;;;;;4958800;28;20047;-78
2022/12/21 09:46:15;;;;;;;8.25;4.72;;;20.00;99.90;;;;;;4950140;29;20050;-74
2022/12/21 09:48:52;;;;;;;9.70;4.70;;;20.20;99.90;;;;;;4951480;28;20130;-75
2022/12/21 09:51:25;;;;;;;5.45;3.60;;;20.40;99.90;;;;;;4956676;28;20047;-73
2022/12/21 09:54:02;;;;;;;5.70;3.65;;;20.40;99.90;;;;;;4964389;28;20101;-74
2022/12/21 09:56:30;;;;;;;7.05;4.20;;;20.00;99.90;;;;;;4970041;28;20129;-73
2022/12/21 09:59:02;;;;;;;5.70;4.25;;;19.50;99.90;;;;;;4953851;28;20051;-73
2022/12/21 10:01:47;;;;;;;7.60;5.68;;;19.30;99.90;;;;;;4969712;28;20031;-73
2022/12/21 10:04:15;;;;;;;7.60;4.87;;;19.00;99.90;;;;;;4953843;28;20043;-73
2022/12/21 10:07:14;;;;;;;9.98;5.43;;;18.60;99.90;;;;;;4954393;28;20417;-73
2022/12/21 10:09:53;;;;;;;10.45;6.40;;;18.20;99.90;;;;;;4969684;28;20047;-74
2022/12/21 10:12:28;;;;;;;11.52;7.70;;;17.80;99.90;;;;;;4958341;28;20402;-73
2022/12/21 10:15:17;;;;;;;9.48;7.78;;;17.60;99.90;;;;;;4970831;28;20050;-74
2022/12/21 10:17:53;;;;;;;10.35;5.43;;;17.30;99.90;;;;;;4970272;28;20458;-73
2022/12/21 10:20:23;;;;;;;;;;;17.10;99.90;;;;;;4971334;28;20050;-73
2022/12/21 10:22:57;;;;;;;6.10;5.50;;;16.90;99.90;;;;;;4957158;28;19929;-73
2022/12/21 10:25:31;;;;;;;7.97;5.93;;;16.80;99.90;;;;;;4965373;28;20050;-74
2022/12/21 10:28:39;;;;;;;7.28;5.57;;;16.70;99.90;;;;;;4951786;29;20050;-75
2022/12/21 10:31:16;;;;;;;7.03;4.47;;;16.70;99.90;;;;;;4954833;28;20050;-73
2022/12/21 10:33:46;;;;;;;6.57;3.97;;;16.60;99.90;;;;;;4956306;28;20133;-74
2022/12/21 10:36:16;;;;;;;8.45;4.75;;;16.50;99.90;;;;;;4950030;29;20461;-73
2022/12/21 10:38:44;;;;;;;6.32;4.35;;;16.50;99.90;;;;;;4949968;29;20549;-73
2022/12/21 10:41:22;;;;;;;6.97;4.25;;;16.50;99.90;;;;;;4955216;28;20062;-74
2022/12/21 10:43:53;;;;;;;6.72;4.18;;;16.40;99.90;;;;;;4955574;28;20539;-73
2022/12/21 10:46:25;;;;;;;6.22;4.10;;;16.60;99.90;;;;;;4951279;28;20047;-74
2022/12/21 10:48:59;;;;;;;7.43;4.05;;;16.90;99.90;;;;;;4966448;28;20106;-73
2022/12/21 10:51:32;;;;;;;4.72;3.30;;;17.10;99.90;;;;;;4947948;28;20050;-74
2022/12/21 10:54:08;;;;;;;6.93;3.53;;;17.20;99.90;;;;;;4954880;28;20077;-73
2022/12/21 10:56:48;;;;;;;6.35;3.88;;;17.20;99.90;;;;;;4955895;28;20065;-73
2022/12/21 10:59:30;;;;;;;6.35;3.83;;;17.10;99.90;;;;;;4965884;28;20054;-75
2022/12/21 11:01:57;;;;;;;11.27;4.75;;;16.90;99.90;;;;;;4969522;28;20121;-74
2022/12/21 11:04:26;;;;;;;6.70;3.50;;;16.80;99.90;;;;;;4951374;28;20481;-73
2022/12/21 11:07:04;;;;;;;6.60;5.07;;;16.60;99.90;;;;;;4951649;28;20122;-73
2022/12/21 11:10:00;;;;;;;8.02;4.60;;;16.50;99.90;;;;;;4949318;29;20039;-76
2022/12/21 11:12:52;;;;;;;7.10;4.75;;;16.40;99.90;;;;;;4948196;28;20039;-76
2022/12/21 11:15:24;;;;;;;7.28;4.55;;;16.30;99.90;;;;;;4945550;29;20413;-77
2022/12/21 11:18:26;;;;;;;5.55;3.83;;;16.20;99.90;;;;;;4957663;28;20047;-79
2022/12/21 11:20:54;;;;;;;7.72;4.25;;;16.10;99.90;;;;;;4950130;28;20098;-78
2022/12/21 11:23:22;;;;;;;9.43;4.85;;;16.00;99.90;;;;;;4958531;28;20113;-78
2022/12/21 11:25:51;;;;;;;7.03;5.90;;;16.00;99.90;;;;;;4947875;29;20110;-77
2022/12/21 11:28:20;;;;;;;8.15;5.57;;;16.20;99.90;;;;;;4965575;28;20050;-78
2022/12/21 11:30:55;;;;;;;9.93;3.50;;;16.50;99.90;;;;;;4984090;28;20059;-77
2022/12/21 11:33:23;;;;;;;9.55;3.55;;;16.80;99.90;;;;;;4960480;28;20150;-77
2022/12/21 11:36:11;;;;;;;4.03;2.88;;;17.20;99.90;;;;;;4964446;28;20114;-76
2022/12/21 11:38:39;;;;;;;7.55;3.33;;;17.30;99.90;;;;;;4950098;28;20497;-77
2022/12/21 11:41:26;;;;;;;3.63;2.70;;;17.30;99.90;;;;;;4952891;28;20050;-77
2022/12/21 11:43:55;;;;;;;5.00;2.60;;;17.20;99.90;;;;;;4939267;29;20533;-77
2022/12/21 11:47:08;;;;;;;7.68;3.30;;;17.00;99.90;;;;;;4953324;28;20569;-77
2022/12/21 11:49:54;;;;;;;5.75;3.75;;;16.90;99.90;;;;;;4911302;29;20533;-78
2022/12/21 11:52:57;;;;;;;4.63;3.40;;;16.70;99.90;;;;;;4965473;28;20061;-79
2022/12/21 11:55:35;;;;;;;8.60;3.90;;;16.50;99.90;;;;;;4935439;28;20137;-78
2022/12/21 11:58:26;;;;;;;8.32;5.40;;;16.40;99.90;;;;;;4952555;29;20240;-76
2022/12/21 12:01:15;;;;;;;6.95;3.75;;;16.30;99.90;;;;;;4921246;28;20055;-77
2022/12/21 12:03:57;;;;;;;5.82;3.83;;;16.20;99.90;;;;;;4955171;28;20062;-78
2022/12/21 12:06:33;;;;;;;12.77;4.90;;;16.30;99.90;;;;;;4972433;28;20046;-77
2022/12/21 12:09:16;;;;;;;5.28;3.92;;;16.40;99.90;;;;;;4971704;28;20089;-77
2022/12/21 12:11:58;;;;;;;5.60;2.92;;;16.60;99.90;;;;;;4965423;28;20458;-77
2022/12/21 12:14:44;;;;;;;6.07;2.72;;;16.90;99.90;;;;;;4968701;28;20094;-78
2022/12/21 12:17:33;;;;;;;5.30;3.45;;;17.10;99.90;;;;;;4972802;28;20042;-78
2022/12/21 12:20:24;;;;;;;6.85;2.83;;;17.40;99.90;;;;;;4954426;28;20053;-77
2022/12/21 12:23:07;;;;;;;4.78;2.90;;;17.50;99.90;;;;;;4901114;29;20541;-78
2022/12/21 12:25:55;;;;;;;5.68;3.10;;;17.60;99.90;;;;;;4938285;28;20153;-78
2022/12/21 12:28:45;;;;;;;10.10;2.75;;;17.60;99.90;;;;;;4970924;28;20043;-78
2022/12/21 12:31:19;;;;;;;4.85;2.80;;;17.50;99.90;;;;;;4969506;28;20134;-78
2022/12/21 12:34:11;;;;;;;6.03;3.92;;;17.40;99.90;;;;;;4951876;29;20055;-78
2022/12/21 12:37:06;;;;;;;4.57;2.63;;;17.20;99.90;;;;;;4953625;28;20102;-78
2022/12/21 12:39:55;;;;;;;8.05;3.78;;;17.00;99.90;;;;;;4944296;29;20059;-78
2022/12/21 12:42:31;;;;;;;6.22;3.30;;;16.90;99.90;;;;;;4947718;28;20051;-78
2022/12/21 12:45:28;;;;;;;6.40;4.30;;;16.70;99.90;;;;;;4952259;29;20109;-78
2022/12/21 12:48:17;;;;;;;7.93;5.15;;;16.50;99.90;;;;;;4949018;28;20051;-78
2022/12/21 12:51:23;;;;;;;6.00;3.58;;;16.40;99.90;;;;;;4953203;28;20066;-77
2022/12/21 12:54:29;;;;;;;5.40;3.13;;;16.20;99.90;;;;;;4961341;28;20055;-78
2022/12/21 12:57:13;;;;;;;5.82;4.80;;;16.10;99.90;;;;;;4962149;28;20203;-78
2022/12/21 12:59:47;;;;;;;8.40;5.82;;;16.00;99.90;;;;;;4971980;28;20046;-77
2022/12/21 13:02:35;;;;;;;5.53;4.47;;;15.90;99.90;;;;;;4961332;28;20043;-78
2022/12/21 13:05:25;;;;;;;5.82;4.25;;;15.80;99.90;;;;;;4953146;29;20055;-78
2022/12/21 13:08:14;;;;;;;6.45;4.70;;;15.80;99.90;;;;;;4969707;28;20051;-78
2022/12/21 13:11:10;;;;;;;5.45;3.65;;;15.90;99.90;;;;;;4958434;28;20059;-78
2022/12/21 13:14:10;;;;;;;5.95;4.00;;;16.00;99.90;;;;;;4961232;28;20043;-77
2022/12/21 13:16:45;;;;;;;5.60;3.80;;;16.10;99.90;;;;;;4955206;28;20051;-78
2022/12/21 13:19:17;;;;;;;5.38;4.00;;;16.20;99.90;;;;;;4971795;28;20042;-78
2022/12/21 13:21:49;;;;;;;5.85;4.40;;;16.20;99.90;;;;;;4965515;28;20043;-78
2022/12/21 13:24:28;;;;;;;7.20;3.80;;;16.20;99.90;;;;;;4950078;28;20106;-78
2022/12/21 13:27:03;;;;;;;5.32;3.80;;;16.10;99.90;;;;;;4938768;28;20355;-77